sensor_id;sensor_type;location;lat;lon;timestamp;pressure;altitude;pressure_sealevel;temperature;humidity
19672;BME280;9983;51.114;13.788;2022-11-15T00:04:19;99371.75;;;10.24;100.00
19672;BME280;9983;51.114;13.788;2022-11-15T00:09:19;99369.44;;;10.13;100.00
19672;BME280;9983;51.114;13.788;2022-11-15T00:14:19;99359.31;;;9.92;100.00
19672;BME280;9983;51.114;13.788;2022-11-15T00:19:20;99360.28;;;9.99;100.00
19672;BME280;9983;51.114;13.788;2022-11-15T00:24:20;99355.47;;;9.95;100.00
19672;BME280;9983;51.114;13.788;2022-11-15T00:29:20;99347.78;;;9.92;100.00
19672;BME280;9983;51.114;13.788;2022-11-15T00:34:20;99360.50;;;9.89;100.00
19672;BME280;9983;51.114;13.788;2022-11-15T00:39:21;99357.28;;;9.47;100.00
19672;BME280;9983;51.114;13.788;2022-11-15T00:44:21;99353.56;;;9.56;100.00
19672;BME280;9983;51.114;13.788;2022-11-15T00:49:21;99362.91;;;9.76;100.00
19672;BME280;9983;51.114;13.788;2022-11-15T00:54:22;99355.28;;;9.49;100.00
19672;BME280;9983;51.114;13.788;2022-11-15T00:59:22;99351.03;;;9.63;100.00
19672;BME280;9983;51.114;13.788;2022-11-15T01:04:22;99359.56;;;9.74;100.00
19672;BME280;9983;51.114;13.788;2022-11-15T01:09:23;99356.75;;;9.60;100.00
19672;BME280;9983;51.114;13.788;2022-11-15T01:14:23;99344.19;;;9.68;100.00
19672;BME280;9983;51.114;13.788;2022-11-15T01:19:23;99333.88;;;9.49;100.00
19672;BME280;9983;51.114;13.788;2022-11-15T01:24:24;99337.88;;;9.53;100.00
19672;BME280;9983;51.114;13.788;2022-11-15T01:29:24;99339.31;;;9.72;100.00
19672;BME280;9983;51.114;13.788;2022-11-15T01:34:24;99323.53;;;9.30;100.00
19672;BME280;9983;51.114;13.788;2022-11-15T01:39:24;99319.47;;;9.50;100.00
19672;BME280;9983;51.114;13.788;2022-11-15T01:44:47;99309.06;;;9.63;100.00
19672;BME280;9983;51.114;13.788;2022-11-15T01:50:02;99300.66;;;9.74;100.00
19672;BME280;9983;51.114;13.788;2022-11-15T01:55:11;99291.97;;;9.72;100.00
19672;BME280;9983;51.114;13.788;2022-11-15T02:00:15;99286.91;;;9.85;100.00
19672;BME280;9983;51.114;13.788;2022-11-15T02:05:15;99281.13;;;9.97;100.00
19672;BME280;9983;51.114;13.788;2022-11-15T02:10:21;99288.81;;;10.00;100.00
19672;BME280;9983;51.114;13.788;2022-11-15T02:15:26;99287.53;;;9.96;100.00
19672;BME280;9983;51.114;13.788;2022-11-15T02:26:03;99264.50;;;9.78;100.00
19672;BME280;9983;51.114;13.788;2022-11-15T02:36:40;99273.22;;;9.72;100.00
19672;BME280;9983;51.114;13.788;2022-11-15T02:46:59;99251.84;;;9.64;100.00
19672;BME280;9983;51.114;13.788;2022-11-15T02:52:19;99252.38;;;9.90;100.00
19672;BME280;9983;51.114;13.788;2022-11-15T03:03:18;99245.72;;;9.86;100.00
19672;BME280;9983;51.114;13.788;2022-11-15T03:08:22;99236.66;;;9.87;100.00
19672;BME280;9983;51.114;13.788;2022-11-15T03:13:33;99227.47;;;9.59;100.00
19672;BME280;9983;51.114;13.788;2022-11-15T03:18:39;99254.31;;;9.35;100.00
19672;BME280;9983;51.114;13.788;2022-11-15T03:23:42;99226.88;;;9.33;100.00
19672;BME280;9983;51.114;13.788;2022-11-15T03:28:49;99228.91;;;9.31;100.00
19672;BME280;9983;51.114;13.788;2022-11-15T03:33:51;99222.06;;;9.28;100.00
19672;BME280;9983;51.114;13.788;2022-11-15T03:38:56;99215.47;;;9.00;100.00
19672;BME280;9983;51.114;13.788;2022-11-15T03:44:05;99215.97;;;9.03;100.00
19672;BME280;9983;51.114;13.788;2022-11-15T03:49:17;99209.97;;;8.93;100.00
19672;BME280;9983;51.114;13.788;2022-11-15T03:54:20;99211.66;;;8.94;100.00
19672;BME280;9983;51.114;13.788;2022-11-15T03:59:20;99210.31;;;8.90;100.00
19672;BME280;9983;51.114;13.788;2022-11-15T04:04:21;99208.38;;;8.44;100.00
19672;BME280;9983;51.114;13.788;2022-11-15T04:09:21;99195.31;;;8.65;100.00
19672;BME280;9983;51.114;13.788;2022-11-15T04:14:21;99201.34;;;8.43;100.00
19672;BME280;9983;51.114;13.788;2022-11-15T04:19:21;99206.00;;;8.65;100.00
19672;BME280;9983;51.114;13.788;2022-11-15T04:24:40;99199.16;;;8.54;100.00
19672;BME280;9983;51.114;13.788;2022-11-15T04:29:41;99193.66;;;8.48;100.00
19672;BME280;9983;51.114;13.788;2022-11-15T04:34:41;99189.31;;;8.38;100.00
19672;BME280;9983;51.114;13.788;2022-11-15T04:39:42;99189.66;;;8.27;100.00
19672;BME280;9983;51.114;13.788;2022-11-15T04:44:43;99179.59;;;7.97;100.00
19672;BME280;9983;51.114;13.788;2022-11-15T04:49:43;99172.94;;;8.09;100.00
19672;BME280;9983;51.114;13.788;2022-11-15T04:54:44;99178.28;;;8.25;100.00
19672;BME280;9983;51.114;13.788;2022-11-15T04:59:44;99177.63;;;8.07;100.00
19672;BME280;9983;51.114;13.788;2022-11-15T05:04:45;99180.28;;;8.23;100.00
19672;BME280;9983;51.114;13.788;2022-11-15T05:09:45;99175.47;;;8.19;100.00
19672;BME280;9983;51.114;13.788;2022-11-15T05:14:45;99172.13;;;8.25;100.00
19672;BME280;9983;51.114;13.788;2022-11-15T05:19:45;99167.94;;;8.30;100.00
19672;BME280;9983;51.114;13.788;2022-11-15T05:24:46;99170.94;;;8.11;100.00
19672;BME280;9983;51.114;13.788;2022-11-15T05:29:46;99172.59;;;7.96;100.00
19672;BME280;9983;51.114;13.788;2022-11-15T05:34:47;99161.91;;;8.12;100.00
19672;BME280;9983;51.114;13.788;2022-11-15T05:39:47;99171.28;;;8.16;100.00
19672;BME280;9983;51.114;13.788;2022-11-15T05:44:48;99160.59;;;8.08;100.00
19672;BME280;9983;51.114;13.788;2022-11-15T05:49:50;99156.56;;;7.88;100.00
19672;BME280;9983;51.114;13.788;2022-11-15T05:54:52;99162.91;;;7.87;100.00
19672;BME280;9983;51.114;13.788;2022-11-15T05:59:53;99167.59;;;8.01;100.00
19672;BME280;9983;51.114;13.788;2022-11-15T06:04:54;99157.94;;;8.00;100.00
19672;BME280;9983;51.114;13.788;2022-11-15T06:09:54;99170.28;;;8.01;100.00
19672;BME280;9983;51.114;13.788;2022-11-15T06:14:54;99174.63;;;8.02;100.00
19672;BME280;9983;51.114;13.788;2022-11-15T06:19:55;99166.63;;;8.02;100.00
19672;BME280;9983;51.114;13.788;2022-11-15T06:24:55;99168.28;;;8.03;100.00
19672;BME280;9983;51.114;13.788;2022-11-15T06:29:55;99173.94;;;8.16;100.00
19672;BME280;9983;51.114;13.788;2022-11-15T06:34:55;99182.97;;;8.15;100.00
19672;BME280;9983;51.114;13.788;2022-11-15T06:39:56;99181.63;;;8.27;100.00
19672;BME280;9983;51.114;13.788;2022-11-15T06:44:56;99180.66;;;8.36;100.00
19672;BME280;9983;51.114;13.788;2022-11-15T06:49:56;99175.31;;;8.36;100.00
19672;BME280;9983;51.114;13.788;2022-11-15T06:54:56;99170.59;;;8.30;100.00
19672;BME280;9983;51.114;13.788;2022-11-15T06:59:57;99187.47;;;8.15;100.00
19672;BME280;9983;51.114;13.788;2022-11-15T07:04:57;99180.66;;;8.53;100.00
19672;BME280;9983;51.114;13.788;2022-11-15T07:09:57;99178.94;;;8.68;100.00
19672;BME280;9983;51.114;13.788;2022-11-15T07:14:57;99180.22;;;8.88;100.00
19672;BME280;9983;51.114;13.788;2022-11-15T07:19:58;99190.25;;;8.94;100.00
19672;BME280;9983;51.114;13.788;2022-11-15T07:24:58;99184.91;;;8.94;100.00
19672;BME280;9983;51.114;13.788;2022-11-15T07:29:58;99188.53;;;9.09;100.00
19672;BME280;9983;51.114;13.788;2022-11-15T07:34:59;99183.75;;;9.36;100.00
19672;BME280;9983;51.114;13.788;2022-11-15T07:39:59;99193.03;;;9.48;100.00
19672;BME280;9983;51.114;13.788;2022-11-15T07:44:59;99196.16;;;9.21;100.00
19672;BME280;9983;51.114;13.788;2022-11-15T07:50:00;99192.97;;;9.64;100.00
19672;BME280;9983;51.114;13.788;2022-11-15T07:55:00;99186.56;;;9.73;100.00
19672;BME280;9983;51.114;13.788;2022-11-15T08:00:00;99181.13;;;10.12;100.00
19672;BME280;9983;51.114;13.788;2022-11-15T08:05:01;99183.16;;;10.33;100.00
19672;BME280;9983;51.114;13.788;2022-11-15T08:10:01;99181.22;;;10.42;100.00
19672;BME280;9983;51.114;13.788;2022-11-15T08:15:01;99181.47;;;10.70;100.00
19672;BME280;9983;51.114;13.788;2022-11-15T08:20:02;99181.97;;;10.88;100.00
19672;BME280;9983;51.114;13.788;2022-11-15T08:25:03;99176.13;;;11.14;100.00
19672;BME280;9983;51.114;13.788;2022-11-15T08:30:04;99172.53;;;11.21;100.00
19672;BME280;9983;51.114;13.788;2022-11-15T08:35:05;99167.69;;;11.46;99.53
19672;BME280;9983;51.114;13.788;2022-11-15T08:40:06;99172.50;;;11.51;99.56
19672;BME280;9983;51.114;13.788;2022-11-15T08:45:07;99171.38;;;11.60;98.65
19672;BME280;9983;51.114;13.788;2022-11-15T08:50:08;99170.47;;;11.74;96.84
19672;BME280;9983;51.114;13.788;2022-11-15T08:55:08;99162.63;;;11.87;95.62
19672;BME280;9983;51.114;13.788;2022-11-15T09:00:09;99160.56;;;12.10;93.58
19672;BME280;9983;51.114;13.788;2022-11-15T09:05:11;99160.06;;;12.22;93.19
19672;BME280;9983;51.114;13.788;2022-11-15T09:10:11;99150.31;;;12.42;92.69
19672;BME280;9983;51.114;13.788;2022-11-15T09:15:11;99144.53;;;12.45;93.36
19672;BME280;9983;51.114;13.788;2022-11-15T09:20:12;99151.75;;;12.72;91.91
19672;BME280;9983;51.114;13.788;2022-11-15T09:25:12;99146.88;;;12.82;89.63
19672;BME280;9983;51.114;13.788;2022-11-15T09:30:13;99154.25;;;13.02;88.67
19672;BME280;9983;51.114;13.788;2022-11-15T09:35:13;99151.00;;;13.13;86.06
19672;BME280;9983;51.114;13.788;2022-11-15T09:40:16;99144.72;;;13.40;85.24
19672;BME280;9983;51.114;13.788;2022-11-15T09:45:26;99138.19;;;13.62;83.08
19672;BME280;9983;51.114;13.788;2022-11-15T09:50:34;99136.16;;;13.78;82.74
19672;BME280;9983;51.114;13.788;2022-11-15T09:56:03;99122.50;;;13.79;81.73
19672;BME280;9983;51.114;13.788;2022-11-15T10:01:12;99128.09;;;13.91;81.87
19672;BME280;9983;51.114;13.788;2022-11-15T10:06:23;99124.19;;;14.13;80.62
19672;BME280;9983;51.114;13.788;2022-11-15T10:11:27;99120.88;;;14.24;78.70
19672;BME280;9983;51.114;13.788;2022-11-15T10:16:46;99119.25;;;14.50;76.54
19672;BME280;9983;51.114;13.788;2022-11-15T10:27:08;99103.66;;;15.36;73.65
19672;BME280;9983;51.114;13.788;2022-11-15T10:32:11;99086.00;;;15.78;70.53
19672;BME280;9983;51.114;13.788;2022-11-15T10:37:12;99083.13;;;16.29;68.52
19672;BME280;9983;51.114;13.788;2022-11-15T10:42:26;99074.53;;;16.63;65.83
19672;BME280;9983;51.114;13.788;2022-11-15T10:47:29;99056.06;;;17.15;63.66
19672;BME280;9983;51.114;13.788;2022-11-15T10:52:33;99062.69;;;17.79;62.31
19672;BME280;9983;51.114;13.788;2022-11-15T10:57:38;99062.25;;;17.82;60.80
19672;BME280;9983;51.114;13.788;2022-11-15T11:02:45;99050.75;;;18.22;58.92
19672;BME280;9983;51.114;13.788;2022-11-15T11:07:58;99047.50;;;18.66;57.79
19672;BME280;9983;51.114;13.788;2022-11-15T11:13:21;99042.53;;;18.40;58.09
19672;BME280;9983;51.114;13.788;2022-11-15T11:18:28;99032.59;;;18.34;55.93
19672;BME280;9983;51.114;13.788;2022-11-15T11:23:54;99023.72;;;18.97;53.32
19672;BME280;9983;51.114;13.788;2022-11-15T11:29:08;99018.91;;;18.52;55.59
19672;BME280;9983;51.114;13.788;2022-11-15T11:40:13;99000.31;;;18.95;53.38
19672;BME280;9983;51.114;13.788;2022-11-15T11:45:20;99003.78;;;18.79;54.98
19672;BME280;9983;51.114;13.788;2022-11-15T11:50:32;98996.84;;;18.13;55.59
19672;BME280;9983;51.114;13.788;2022-11-15T11:55:37;98996.03;;;18.48;54.35
19672;BME280;9983;51.114;13.788;2022-11-15T12:00:42;98992.72;;;18.23;56.30
19672;BME280;9983;51.114;13.788;2022-11-15T12:05:50;98983.28;;;18.48;54.66
19672;BME280;9983;51.114;13.788;2022-11-15T12:11:08;98975.75;;;18.15;55.77
19672;BME280;9983;51.114;13.788;2022-11-15T12:16:20;98964.88;;;18.39;54.86
19672;BME280;9983;51.114;13.788;2022-11-15T12:26:39;98957.06;;;17.84;56.79
19672;BME280;9983;51.114;13.788;2022-11-15T12:31:44;98943.84;;;17.76;56.81
19672;BME280;9983;51.114;13.788;2022-11-15T12:36:46;98936.06;;;17.68;56.79
19672;BME280;9983;51.114;13.788;2022-11-15T13:17:54;98899.06;;;17.62;57.17
19672;BME280;9983;51.114;13.788;2022-11-15T13:23:11;98892.78;;;17.08;58.52
19672;BME280;9983;51.114;13.788;2022-11-15T13:33:19;98895.44;;;16.66;59.65
19672;BME280;9983;51.114;13.788;2022-11-15T13:43:31;98885.50;;;16.24;60.82
19672;BME280;9983;51.114;13.788;2022-11-15T13:48:31;98879.63;;;15.90;61.95
19672;BME280;9983;51.114;13.788;2022-11-15T13:53:36;98877.91;;;15.53;63.97
19672;BME280;9983;51.114;13.788;2022-11-15T13:58:38;98882.97;;;15.43;64.95
19672;BME280;9983;51.114;13.788;2022-11-15T14:03:51;98870.88;;;15.21;65.83
19672;BME280;9983;51.114;13.788;2022-11-15T14:09:00;98866.59;;;15.06;66.64
19672;BME280;9983;51.114;13.788;2022-11-15T14:19:11;98870.25;;;14.56;68.68
19672;BME280;9983;51.114;13.788;2022-11-15T14:24:20;98868.72;;;14.22;69.59
19672;BME280;9983;51.114;13.788;2022-11-15T14:29:25;98859.88;;;13.82;71.11
19672;BME280;9983;51.114;13.788;2022-11-15T14:34:27;98872.34;;;13.70;72.12
19672;BME280;9983;51.114;13.788;2022-11-15T14:39:27;98853.44;;;13.89;71.34
19672;BME280;9983;51.114;13.788;2022-11-15T14:44:27;98855.19;;;13.64;72.72
19672;BME280;9983;51.114;13.788;2022-11-15T14:49:28;98851.88;;;13.55;73.87
19672;BME280;9983;51.114;13.788;2022-11-15T14:54:28;98843.19;;;13.27;75.29
19672;BME280;9983;51.114;13.788;2022-11-15T14:59:28;98846.47;;;12.96;76.89
19672;BME280;9983;51.114;13.788;2022-11-15T15:04:28;98846.84;;;12.86;77.76
19672;BME280;9983;51.114;13.788;2022-11-15T15:09:28;98847.16;;;12.44;78.54
19672;BME280;9983;51.114;13.788;2022-11-15T15:14:29;98852.06;;;12.34;78.60
19672;BME280;9983;51.114;13.788;2022-11-15T15:19:29;98842.53;;;12.25;78.93
19672;BME280;9983;51.114;13.788;2022-11-15T15:24:29;98835.38;;;11.97;80.36
19672;BME280;9983;51.114;13.788;2022-11-15T15:29:30;98824.63;;;11.97;78.93
19672;BME280;9983;51.114;13.788;2022-11-15T15:34:30;98815.88;;;11.82;79.26
19672;BME280;9983;51.114;13.788;2022-11-15T15:39:30;98822.94;;;11.27;82.47
19672;BME280;9983;51.114;13.788;2022-11-15T15:44:31;98835.63;;;11.12;82.59
19672;BME280;9983;51.114;13.788;2022-11-15T15:49:31;98832.97;;;11.47;80.45
19672;BME280;9983;51.114;13.788;2022-11-15T15:54:31;98830.84;;;10.44;86.89
19672;BME280;9983;51.114;13.788;2022-11-15T15:59:31;98831.28;;;10.47;86.59
19672;BME280;9983;51.114;13.788;2022-11-15T16:04:32;98812.72;;;10.46;87.17
19672;BME280;9983;51.114;13.788;2022-11-15T16:09:32;98817.50;;;10.00;89.54
19672;BME280;9983;51.114;13.788;2022-11-15T16:14:51;98828.59;;;10.11;88.42
19672;BME280;9983;51.114;13.788;2022-11-15T16:19:51;98828.72;;;10.39;86.89
19672;BME280;9983;51.114;13.788;2022-11-15T16:24:52;98826.00;;;9.88;90.20
19672;BME280;9983;51.114;13.788;2022-11-15T16:29:52;98827.97;;;9.65;90.97
19672;BME280;9983;51.114;13.788;2022-11-15T16:34:52;98821.09;;;10.07;88.96
19672;BME280;9983;51.114;13.788;2022-11-15T16:39:52;98815.84;;;9.40;92.93
19672;BME280;9983;51.114;13.788;2022-11-15T16:44:53;98820.13;;;9.49;93.17
19672;BME280;9983;51.114;13.788;2022-11-15T16:49:53;98823.88;;;9.40;93.76
19672;BME280;9983;51.114;13.788;2022-11-15T16:54:53;98805.69;;;9.79;90.89
19672;BME280;9983;51.114;13.788;2022-11-15T16:59:53;98804.63;;;9.59;92.00
19672;BME280;9983;51.114;13.788;2022-11-15T17:04:54;98800.72;;;9.47;92.43
19672;BME280;9983;51.114;13.788;2022-11-15T17:09:54;98788.09;;;9.70;90.46
19672;BME280;9983;51.114;13.788;2022-11-15T17:14:54;98792.78;;;9.09;94.73
19672;BME280;9983;51.114;13.788;2022-11-15T17:19:54;98770.47;;;9.02;96.54
19672;BME280;9983;51.114;13.788;2022-11-15T17:24:55;98774.53;;;9.28;94.82
19672;BME280;9983;51.114;13.788;2022-11-15T17:29:55;98773.47;;;8.99;95.22
19672;BME280;9983;51.114;13.788;2022-11-15T17:34:55;98780.59;;;9.22;94.39
19672;BME280;9983;51.114;13.788;2022-11-15T17:39:55;98781.34;;;9.16;95.39
19672;BME280;9983;51.114;13.788;2022-11-15T17:44:56;98774.91;;;8.50;99.38
19672;BME280;9983;51.114;13.788;2022-11-15T17:49:56;98773.66;;;8.98;96.93
19672;BME280;9983;51.114;13.788;2022-11-15T17:54:56;98768.88;;;9.08;95.79
19672;BME280;9983;51.114;13.788;2022-11-15T17:59:56;98778.00;;;9.13;93.97
19672;BME280;9983;51.114;13.788;2022-11-15T18:04:57;98778.91;;;8.91;96.56
19672;BME280;9983;51.114;13.788;2022-11-15T18:09:57;98764.81;;;8.97;95.51
19672;BME280;9983;51.114;13.788;2022-11-15T18:14:57;98761.28;;;8.45;98.96
19672;BME280;9983;51.114;13.788;2022-11-15T18:19:59;98743.44;;;8.60;98.99
19672;BME280;9983;51.114;13.788;2022-11-15T18:24:59;98739.22;;;8.65;97.58
19672;BME280;9983;51.114;13.788;2022-11-15T18:29:59;98739.75;;;8.38;99.87
19672;BME280;9983;51.114;13.788;2022-11-15T18:34:59;98731.00;;;8.52;98.70
19672;BME280;9983;51.114;13.788;2022-11-15T18:40:00;98728.84;;;8.48;98.21
19672;BME280;9983;51.114;13.788;2022-11-15T18:45:00;98722.66;;;8.70;97.49
19672;BME280;9983;51.114;13.788;2022-11-15T18:50:00;98719.47;;;8.52;98.76
19672;BME280;9983;51.114;13.788;2022-11-15T18:55:01;98710.66;;;8.66;97.45
19672;BME280;9983;51.114;13.788;2022-11-15T19:00:02;98704.97;;;8.69;97.14
19672;BME280;9983;51.114;13.788;2022-11-15T19:05:02;98709.22;;;8.78;96.49
19672;BME280;9983;51.114;13.788;2022-11-15T19:10:03;98709.72;;;8.59;97.97
19672;BME280;9983;51.114;13.788;2022-11-15T19:15:03;98714.91;;;8.75;96.58
19672;BME280;9983;51.114;13.788;2022-11-15T19:20:04;98721.00;;;8.69;96.97
19672;BME280;9983;51.114;13.788;2022-11-15T19:25:05;98709.94;;;8.72;96.47
19672;BME280;9983;51.114;13.788;2022-11-15T19:30:07;98706.91;;;8.75;96.30
19672;BME280;9983;51.114;13.788;2022-11-15T19:35:08;98697.56;;;8.71;96.04
19672;BME280;9983;51.114;13.788;2022-11-15T19:40:09;98697.16;;;8.45;98.23
19672;BME280;9983;51.114;13.788;2022-11-15T19:45:09;98698.03;;;8.60;96.95
19672;BME280;9983;51.114;13.788;2022-11-15T19:50:10;98697.72;;;8.55;96.34
19672;BME280;9983;51.114;13.788;2022-11-15T19:55:10;98697.03;;;8.61;95.84
19672;BME280;9983;51.114;13.788;2022-11-15T20:00:10;98702.72;;;8.58;96.40
19672;BME280;9983;51.114;13.788;2022-11-15T20:05:11;98692.38;;;8.55;96.08
19672;BME280;9983;51.114;13.788;2022-11-15T20:10:11;98683.88;;;8.36;97.48
19672;BME280;9983;51.114;13.788;2022-11-15T20:15:11;98693.34;;;8.62;95.56
19672;BME280;9983;51.114;13.788;2022-11-15T20:20:11;98689.78;;;8.47;96.43
19672;BME280;9983;51.114;13.788;2022-11-15T20:25:12;98674.50;;;8.41;96.67
19672;BME280;9983;51.114;13.788;2022-11-15T20:30:12;98682.91;;;8.52;96.06
19672;BME280;9983;51.114;13.788;2022-11-15T20:35:12;98690.59;;;8.32;98.35
19672;BME280;9983;51.114;13.788;2022-11-15T20:40:13;98690.28;;;8.27;99.38
19672;BME280;9983;51.114;13.788;2022-11-15T20:45:13;98681.16;;;8.45;97.71
19672;BME280;9983;51.114;13.788;2022-11-15T20:50:13;98686.25;;;8.31;98.54
19672;BME280;9983;51.114;13.788;2022-11-15T20:55:14;98669.50;;;8.37;98.16
19672;BME280;9983;51.114;13.788;2022-11-15T21:00:14;98678.53;;;8.36;99.07
19672;BME280;9983;51.114;13.788;2022-11-15T21:05:15;98656.34;;;8.36;99.33
19672;BME280;9983;51.114;13.788;2022-11-15T21:10:16;98650.28;;;8.19;100.00
19672;BME280;9983;51.114;13.788;2022-11-15T21:15:34;98645.28;;;8.16;100.00
19672;BME280;9983;51.114;13.788;2022-11-15T21:20:35;98636.28;;;8.17;100.00
19672;BME280;9983;51.114;13.788;2022-11-15T21:25:35;98643.75;;;7.99;100.00
19672;BME280;9983;51.114;13.788;2022-11-15T21:30:36;98638.19;;;8.31;100.00
19672;BME280;9983;51.114;13.788;2022-11-15T21:35:36;98638.41;;;8.22;100.00
19672;BME280;9983;51.114;13.788;2022-11-15T21:40:37;98633.53;;;8.25;100.00
19672;BME280;9983;51.114;13.788;2022-11-15T21:45:37;98634.16;;;8.35;100.00
19672;BME280;9983;51.114;13.788;2022-11-15T21:50:38;98631.03;;;8.47;99.57
19672;BME280;9983;51.114;13.788;2022-11-15T22:00:58;98621.66;;;8.51;98.79
19672;BME280;9983;51.114;13.788;2022-11-15T22:06:17;98621.66;;;8.51;98.85
19672;BME280;9983;51.114;13.788;2022-11-15T22:11:18;98632.75;;;8.40;99.89
19672;BME280;9983;51.114;13.788;2022-11-15T22:16:18;98623.31;;;8.52;98.63
19672;BME280;9983;51.114;13.788;2022-11-15T22:21:20;98628.81;;;8.35;99.96
19672;BME280;9983;51.114;13.788;2022-11-15T22:26:20;98616.09;;;8.37;99.67
19672;BME280;9983;51.114;13.788;2022-11-15T22:31:20;98597.53;;;8.59;97.98
19672;BME280;9983;51.114;13.788;2022-11-15T22:36:21;98593.28;;;8.50;99.04
19672;BME280;9983;51.114;13.788;2022-11-15T22:41:21;98585.91;;;8.52;99.08
19672;BME280;9983;51.114;13.788;2022-11-15T22:46:21;98569.41;;;8.48;100.00
19672;BME280;9983;51.114;13.788;2022-11-15T22:51:21;98554.97;;;8.43;98.99
19672;BME280;9983;51.114;13.788;2022-11-15T22:56:22;98549.63;;;8.43;99.93
19672;BME280;9983;51.114;13.788;2022-11-15T23:01:22;98548.03;;;8.33;100.00
19672;BME280;9983;51.114;13.788;2022-11-15T23:06:22;98539.06;;;8.26;100.00
19672;BME280;9983;51.114;13.788;2022-11-15T23:11:23;98538.69;;;8.29;100.00
19672;BME280;9983;51.114;13.788;2022-11-15T23:16:42;98533.69;;;7.97;100.00
19672;BME280;9983;51.114;13.788;2022-11-15T23:21:44;98526.16;;;8.30;100.00
19672;BME280;9983;51.114;13.788;2022-11-15T23:27:05;98520.59;;;8.40;100.00
19672;BME280;9983;51.114;13.788;2022-11-15T23:32:09;98520.31;;;8.34;100.00
19672;BME280;9983;51.114;13.788;2022-11-15T23:37:28;98515.84;;;8.12;100.00
19672;BME280;9983;51.114;13.788;2022-11-15T23:42:28;98500.03;;;8.25;100.00
19672;BME280;9983;51.114;13.788;2022-11-15T23:47:29;98502.53;;;8.27;100.00
19672;BME280;9983;51.114;13.788;2022-11-15T23:52:29;98499.47;;;8.15;100.00
19672;BME280;9983;51.114;13.788;2022-11-15T23:57:29;98490.09;;;8.19;100.00
